sensor_id;sensor_type;location;lat;lon;timestamp;temperature;humidity
32296;DHT22;18781;51.550;5.418;2023-05-23T00:01:01;18.50;66.70
32296;DHT22;18781;51.550;5.418;2023-05-23T00:03:27;18.40;66.60
32296;DHT22;18781;51.550;5.418;2023-05-23T00:05:55;18.40;66.80
32296;DHT22;18781;51.550;5.418;2023-05-23T00:08:21;18.40;66.80
32296;DHT22;18781;51.550;5.418;2023-05-23T00:10:47;18.40;67.00
32296;DHT22;18781;51.550;5.418;2023-05-23T00:13:13;18.30;66.90
32296;DHT22;18781;51.550;5.418;2023-05-23T00:15:39;18.30;67.10
32296;DHT22;18781;51.550;5.418;2023-05-23T00:18:06;18.20;67.40
32296;DHT22;18781;51.550;5.418;2023-05-23T00:20:33;18.20;67.20
32296;DHT22;18781;51.550;5.418;2023-05-23T00:23:00;18.20;67.40
32296;DHT22;18781;51.550;5.418;2023-05-23T00:25:28;18.20;67.30
32296;DHT22;18781;51.550;5.418;2023-05-23T00:28:02;18.20;67.40
32296;DHT22;18781;51.550;5.418;2023-05-23T00:30:29;18.20;67.80
32296;DHT22;18781;51.550;5.418;2023-05-23T00:32:55;18.10;67.70
32296;DHT22;18781;51.550;5.418;2023-05-23T00:35:22;18.10;67.80
32296;DHT22;18781;51.550;5.418;2023-05-23T00:37:50;18.10;67.70
32296;DHT22;18781;51.550;5.418;2023-05-23T00:40:20;18.10;66.90
32296;DHT22;18781;51.550;5.418;2023-05-23T00:42:46;18.10;67.70
32296;DHT22;18781;51.550;5.418;2023-05-23T00:45:12;18.10;67.90
32296;DHT22;18781;51.550;5.418;2023-05-23T00:47:41;18.00;67.80
32296;DHT22;18781;51.550;5.418;2023-05-23T00:50:10;18.00;68.10
32296;DHT22;18781;51.550;5.418;2023-05-23T00:52:36;18.00;68.00
32296;DHT22;18781;51.550;5.418;2023-05-23T00:55:02;18.00;67.90
32296;DHT22;18781;51.550;5.418;2023-05-23T00:57:28;18.00;68.10
32296;DHT22;18781;51.550;5.418;2023-05-23T00:59:54;18.00;68.00
32296;DHT22;18781;51.550;5.418;2023-05-23T01:02:20;18.00;68.10
32296;DHT22;18781;51.550;5.418;2023-05-23T01:04:49;17.90;68.10
32296;DHT22;18781;51.550;5.418;2023-05-23T01:07:19;17.90;68.00
32296;DHT22;18781;51.550;5.418;2023-05-23T01:09:45;17.90;67.80
32296;DHT22;18781;51.550;5.418;2023-05-23T01:12:30;17.90;67.90
32296;DHT22;18781;51.550;5.418;2023-05-23T01:15:06;17.90;67.80
32296;DHT22;18781;51.550;5.418;2023-05-23T01:17:47;17.80;67.70
32296;DHT22;18781;51.550;5.418;2023-05-23T01:20:42;17.80;67.70
32296;DHT22;18781;51.550;5.418;2023-05-23T01:26:12;17.80;67.70
32296;DHT22;18781;51.550;5.418;2023-05-23T01:28:45;17.80;67.60
32296;DHT22;18781;51.550;5.418;2023-05-23T01:31:11;17.80;67.80
32296;DHT22;18781;51.550;5.418;2023-05-23T01:33:39;17.70;67.70
32296;DHT22;18781;51.550;5.418;2023-05-23T01:36:05;17.70;67.70
32296;DHT22;18781;51.550;5.418;2023-05-23T01:38:32;17.70;67.90
32296;DHT22;18781;51.550;5.418;2023-05-23T01:40:57;17.60;67.90
32296;DHT22;18781;51.550;5.418;2023-05-23T01:43:24;17.60;68.00
32296;DHT22;18781;51.550;5.418;2023-05-23T01:45:52;17.60;68.10
32296;DHT22;18781;51.550;5.418;2023-05-23T01:48:18;17.60;68.30
32296;DHT22;18781;51.550;5.418;2023-05-23T01:50:45;17.60;68.20
32296;DHT22;18781;51.550;5.418;2023-05-23T01:53:15;17.50;68.40
32296;DHT22;18781;51.550;5.418;2023-05-23T01:55:42;17.50;68.50
32296;DHT22;18781;51.550;5.418;2023-05-23T01:58:07;17.60;68.50
32296;DHT22;18781;51.550;5.418;2023-05-23T02:00:33;17.50;68.60
32296;DHT22;18781;51.550;5.418;2023-05-23T02:02:59;17.50;68.70
32296;DHT22;18781;51.550;5.418;2023-05-23T02:05:24;17.50;68.80
32296;DHT22;18781;51.550;5.418;2023-05-23T02:07:51;17.50;68.80
32296;DHT22;18781;51.550;5.418;2023-05-23T02:10:18;17.50;69.00
32296;DHT22;18781;51.550;5.418;2023-05-23T02:12:43;17.50;69.20
32296;DHT22;18781;51.550;5.418;2023-05-23T02:15:09;17.40;69.10
32296;DHT22;18781;51.550;5.418;2023-05-23T02:17:35;17.40;69.20
32296;DHT22;18781;51.550;5.418;2023-05-23T02:20:00;17.40;69.40
32296;DHT22;18781;51.550;5.418;2023-05-23T02:22:26;17.40;69.40
32296;DHT22;18781;51.550;5.418;2023-05-23T02:24:52;17.40;69.50
32296;DHT22;18781;51.550;5.418;2023-05-23T02:27:18;17.40;69.60
32296;DHT22;18781;51.550;5.418;2023-05-23T02:29:43;17.30;69.60
32296;DHT22;18781;51.550;5.418;2023-05-23T02:32:09;17.40;69.80
32296;DHT22;18781;51.550;5.418;2023-05-23T02:34:34;17.30;69.70
32296;DHT22;18781;51.550;5.418;2023-05-23T02:37:00;17.40;69.80
32296;DHT22;18781;51.550;5.418;2023-05-23T02:39:26;17.40;69.80
32296;DHT22;18781;51.550;5.418;2023-05-23T02:41:52;17.30;69.80
32296;DHT22;18781;51.550;5.418;2023-05-23T02:44:17;17.30;69.90
32296;DHT22;18781;51.550;5.418;2023-05-23T02:46:44;17.30;69.90
32296;DHT22;18781;51.550;5.418;2023-05-23T02:49:10;17.30;70.00
32296;DHT22;18781;51.550;5.418;2023-05-23T02:51:36;17.40;70.00
32296;DHT22;18781;51.550;5.418;2023-05-23T02:54:01;17.40;70.10
32296;DHT22;18781;51.550;5.418;2023-05-23T02:56:27;17.40;70.10
32296;DHT22;18781;51.550;5.418;2023-05-23T02:58:53;17.40;70.10
32296;DHT22;18781;51.550;5.418;2023-05-23T03:01:18;17.40;70.00
32296;DHT22;18781;51.550;5.418;2023-05-23T03:03:44;17.40;69.80
32296;DHT22;18781;51.550;5.418;2023-05-23T03:06:10;17.30;69.50
32296;DHT22;18781;51.550;5.418;2023-05-23T03:08:41;17.40;69.50
32296;DHT22;18781;51.550;5.418;2023-05-23T03:11:07;17.40;69.40
32296;DHT22;18781;51.550;5.418;2023-05-23T03:13:33;17.30;69.10
32296;DHT22;18781;51.550;5.418;2023-05-23T03:15:59;17.30;69.20
32296;DHT22;18781;51.550;5.418;2023-05-23T03:18:25;17.30;69.20
32296;DHT22;18781;51.550;5.418;2023-05-23T03:20:50;17.40;69.00
32296;DHT22;18781;51.550;5.418;2023-05-23T03:23:16;17.30;69.00
32296;DHT22;18781;51.550;5.418;2023-05-23T03:25:41;17.30;69.20
32296;DHT22;18781;51.550;5.418;2023-05-23T03:28:07;17.30;69.00
32296;DHT22;18781;51.550;5.418;2023-05-23T03:30:33;17.30;69.10
32296;DHT22;18781;51.550;5.418;2023-05-23T03:32:58;17.30;69.40
32296;DHT22;18781;51.550;5.418;2023-05-23T03:35:24;17.30;68.90
32296;DHT22;18781;51.550;5.418;2023-05-23T03:37:50;17.30;69.00
32296;DHT22;18781;51.550;5.418;2023-05-23T03:40:15;17.30;69.10
32296;DHT22;18781;51.550;5.418;2023-05-23T03:42:41;17.30;69.10
32296;DHT22;18781;51.550;5.418;2023-05-23T03:45:07;17.30;69.20
32296;DHT22;18781;51.550;5.418;2023-05-23T03:47:32;17.30;69.30
32296;DHT22;18781;51.550;5.418;2023-05-23T03:49:58;17.30;69.30
32296;DHT22;18781;51.550;5.418;2023-05-23T03:52:23;17.30;69.20
32296;DHT22;18781;51.550;5.418;2023-05-23T03:54:49;17.30;69.10
32296;DHT22;18781;51.550;5.418;2023-05-23T03:57:15;17.30;69.10
32296;DHT22;18781;51.550;5.418;2023-05-23T03:59:40;17.30;69.10
32296;DHT22;18781;51.550;5.418;2023-05-23T04:02:06;17.40;69.10
32296;DHT22;18781;51.550;5.418;2023-05-23T04:04:32;17.30;69.00
32296;DHT22;18781;51.550;5.418;2023-05-23T04:06:58;17.40;69.20
32296;DHT22;18781;51.550;5.418;2023-05-23T04:09:23;17.30;69.00
32296;DHT22;18781;51.550;5.418;2023-05-23T04:11:50;17.40;69.10
32296;DHT22;18781;51.550;5.418;2023-05-23T04:14:15;17.30;69.00
32296;DHT22;18781;51.550;5.418;2023-05-23T04:16:41;17.30;69.00
32296;DHT22;18781;51.550;5.418;2023-05-23T04:19:09;17.30;69.00
32296;DHT22;18781;51.550;5.418;2023-05-23T04:21:34;17.30;68.90
32296;DHT22;18781;51.550;5.418;2023-05-23T04:24:00;17.30;69.00
32296;DHT22;18781;51.550;5.418;2023-05-23T04:26:27;17.30;69.00
32296;DHT22;18781;51.550;5.418;2023-05-23T04:28:53;17.30;69.10
32296;DHT22;18781;51.550;5.418;2023-05-23T04:31:22;17.30;69.20
32296;DHT22;18781;51.550;5.418;2023-05-23T04:33:48;17.30;69.50
32296;DHT22;18781;51.550;5.418;2023-05-23T04:36:14;17.30;69.30
32296;DHT22;18781;51.550;5.418;2023-05-23T04:38:39;17.30;69.30
32296;DHT22;18781;51.550;5.418;2023-05-23T04:41:06;17.30;69.30
32296;DHT22;18781;51.550;5.418;2023-05-23T04:43:32;17.30;69.30
32296;DHT22;18781;51.550;5.418;2023-05-23T04:46:02;17.30;69.20
32296;DHT22;18781;51.550;5.418;2023-05-23T04:48:28;17.30;69.30
32296;DHT22;18781;51.550;5.418;2023-05-23T04:50:53;17.30;69.20
32296;DHT22;18781;51.550;5.418;2023-05-23T04:53:21;17.30;69.20
32296;DHT22;18781;51.550;5.418;2023-05-23T04:55:46;17.30;69.30
32296;DHT22;18781;51.550;5.418;2023-05-23T04:58:12;17.30;69.40
32296;DHT22;18781;51.550;5.418;2023-05-23T05:00:38;17.30;69.40
32296;DHT22;18781;51.550;5.418;2023-05-23T05:03:03;17.30;69.40
32296;DHT22;18781;51.550;5.418;2023-05-23T05:05:29;17.20;69.40
32296;DHT22;18781;51.550;5.418;2023-05-23T05:07:54;17.20;69.30
32296;DHT22;18781;51.550;5.418;2023-05-23T05:10:20;17.20;69.40
32296;DHT22;18781;51.550;5.418;2023-05-23T05:12:46;17.20;69.30
32296;DHT22;18781;51.550;5.418;2023-05-23T05:15:17;17.20;69.60
32296;DHT22;18781;51.550;5.418;2023-05-23T05:17:43;17.20;69.20
32296;DHT22;18781;51.550;5.418;2023-05-23T05:20:09;17.20;69.20
32296;DHT22;18781;51.550;5.418;2023-05-23T05:22:38;17.20;69.00
32296;DHT22;18781;51.550;5.418;2023-05-23T05:25:10;17.20;68.90
32296;DHT22;18781;51.550;5.418;2023-05-23T05:27:36;17.10;69.00
32296;DHT22;18781;51.550;5.418;2023-05-23T05:30:06;17.10;69.20
32296;DHT22;18781;51.550;5.418;2023-05-23T05:32:32;17.00;69.20
32296;DHT22;18781;51.550;5.418;2023-05-23T05:34:59;17.00;69.30
32296;DHT22;18781;51.550;5.418;2023-05-23T05:37:25;17.00;69.10
32296;DHT22;18781;51.550;5.418;2023-05-23T05:39:51;17.00;69.00
32296;DHT22;18781;51.550;5.418;2023-05-23T05:42:19;17.00;69.10
32296;DHT22;18781;51.550;5.418;2023-05-23T05:44:44;17.00;69.30
32296;DHT22;18781;51.550;5.418;2023-05-23T05:47:10;17.00;69.00
32296;DHT22;18781;51.550;5.418;2023-05-23T05:49:35;17.00;68.90
32296;DHT22;18781;51.550;5.418;2023-05-23T05:52:01;17.00;68.80
32296;DHT22;18781;51.550;5.418;2023-05-23T05:54:26;17.00;68.60
32296;DHT22;18781;51.550;5.418;2023-05-23T05:56:53;16.90;68.70
32296;DHT22;18781;51.550;5.418;2023-05-23T05:59:19;17.00;68.60
32296;DHT22;18781;51.550;5.418;2023-05-23T06:01:44;16.90;68.40
32296;DHT22;18781;51.550;5.418;2023-05-23T06:04:10;16.90;68.40
32296;DHT22;18781;51.550;5.418;2023-05-23T06:06:36;16.90;68.00
32296;DHT22;18781;51.550;5.418;2023-05-23T06:09:01;16.90;68.10
32296;DHT22;18781;51.550;5.418;2023-05-23T06:11:27;16.80;67.80
32296;DHT22;18781;51.550;5.418;2023-05-23T06:13:52;16.80;67.80
32296;DHT22;18781;51.550;5.418;2023-05-23T06:16:18;16.80;68.10
32296;DHT22;18781;51.550;5.418;2023-05-23T06:18:44;16.70;68.20
32296;DHT22;18781;51.550;5.418;2023-05-23T06:21:09;16.70;68.30
32296;DHT22;18781;51.550;5.418;2023-05-23T06:23:35;16.70;68.40
32296;DHT22;18781;51.550;5.418;2023-05-23T06:26:00;16.70;68.10
32296;DHT22;18781;51.550;5.418;2023-05-23T06:28:26;16.60;68.10
32296;DHT22;18781;51.550;5.418;2023-05-23T06:30:52;16.70;67.90
32296;DHT22;18781;51.550;5.418;2023-05-23T06:33:17;16.60;67.90
32296;DHT22;18781;51.550;5.418;2023-05-23T06:35:43;16.60;67.90
32296;DHT22;18781;51.550;5.418;2023-05-23T06:38:08;16.60;68.10
32296;DHT22;18781;51.550;5.418;2023-05-23T06:40:34;16.50;67.90
32296;DHT22;18781;51.550;5.418;2023-05-23T06:43:00;16.50;68.10
32296;DHT22;18781;51.550;5.418;2023-05-23T06:45:25;16.50;68.20
32296;DHT22;18781;51.550;5.418;2023-05-23T06:47:51;16.50;67.50
32296;DHT22;18781;51.550;5.418;2023-05-23T06:50:17;16.50;67.30
32296;DHT22;18781;51.550;5.418;2023-05-23T06:52:45;16.50;67.50
32296;DHT22;18781;51.550;5.418;2023-05-23T06:55:11;16.50;67.50
32296;DHT22;18781;51.550;5.418;2023-05-23T06:57:42;16.40;67.30
32296;DHT22;18781;51.550;5.418;2023-05-23T07:00:08;16.40;67.30
32296;DHT22;18781;51.550;5.418;2023-05-23T07:02:34;16.40;67.00
32296;DHT22;18781;51.550;5.418;2023-05-23T07:05:00;16.30;66.80
32296;DHT22;18781;51.550;5.418;2023-05-23T07:07:25;16.30;67.00
32296;DHT22;18781;51.550;5.418;2023-05-23T07:09:51;16.30;66.80
32296;DHT22;18781;51.550;5.418;2023-05-23T07:12:16;16.30;66.80
32296;DHT22;18781;51.550;5.418;2023-05-23T07:14:42;16.30;66.90
32296;DHT22;18781;51.550;5.418;2023-05-23T07:17:08;16.20;66.10
32296;DHT22;18781;51.550;5.418;2023-05-23T07:19:33;16.20;66.10
32296;DHT22;18781;51.550;5.418;2023-05-23T07:21:59;16.30;65.90
32296;DHT22;18781;51.550;5.418;2023-05-23T07:24:24;16.20;65.30
32296;DHT22;18781;51.550;5.418;2023-05-23T07:26:50;16.30;65.20
32296;DHT22;18781;51.550;5.418;2023-05-23T07:29:15;16.30;64.90
32296;DHT22;18781;51.550;5.418;2023-05-23T07:31:41;16.30;64.80
32296;DHT22;18781;51.550;5.418;2023-05-23T07:34:06;16.30;64.30
32296;DHT22;18781;51.550;5.418;2023-05-23T07:36:32;16.30;64.60
32296;DHT22;18781;51.550;5.418;2023-05-23T07:39:00;16.40;64.40
32296;DHT22;18781;51.550;5.418;2023-05-23T07:41:25;16.40;63.70
32296;DHT22;18781;51.550;5.418;2023-05-23T07:43:51;16.40;63.70
32296;DHT22;18781;51.550;5.418;2023-05-23T07:46:16;16.40;63.70
32296;DHT22;18781;51.550;5.418;2023-05-23T07:48:42;16.40;63.30
32296;DHT22;18781;51.550;5.418;2023-05-23T07:51:08;16.50;62.50
32296;DHT22;18781;51.550;5.418;2023-05-23T07:53:33;16.50;62.90
32296;DHT22;18781;51.550;5.418;2023-05-23T07:56:00;16.50;62.40
32296;DHT22;18781;51.550;5.418;2023-05-23T07:58:25;16.50;62.10
32296;DHT22;18781;51.550;5.418;2023-05-23T08:00:51;16.50;62.70
32296;DHT22;18781;51.550;5.418;2023-05-23T08:03:16;16.50;62.20
32296;DHT22;18781;51.550;5.418;2023-05-23T08:05:43;16.60;62.20
32296;DHT22;18781;51.550;5.418;2023-05-23T08:08:08;16.60;62.20
32296;DHT22;18781;51.550;5.418;2023-05-23T08:10:46;16.60;62.20
32296;DHT22;18781;51.550;5.418;2023-05-23T08:13:12;16.60;62.80
32296;DHT22;18781;51.550;5.418;2023-05-23T08:15:38;16.70;63.40
32296;DHT22;18781;51.550;5.418;2023-05-23T08:18:04;16.70;63.10
32296;DHT22;18781;51.550;5.418;2023-05-23T08:20:30;16.70;63.10
32296;DHT22;18781;51.550;5.418;2023-05-23T08:22:59;16.80;63.00
32296;DHT22;18781;51.550;5.418;2023-05-23T08:25:25;16.90;62.30
32296;DHT22;18781;51.550;5.418;2023-05-23T08:27:55;16.90;63.10
32296;DHT22;18781;51.550;5.418;2023-05-23T08:30:22;16.90;62.50
32296;DHT22;18781;51.550;5.418;2023-05-23T08:32:47;16.90;62.30
32296;DHT22;18781;51.550;5.418;2023-05-23T08:35:13;16.90;62.00
32296;DHT22;18781;51.550;5.418;2023-05-23T08:37:39;16.90;62.10
32296;DHT22;18781;51.550;5.418;2023-05-23T08:40:06;16.90;61.70
32296;DHT22;18781;51.550;5.418;2023-05-23T08:42:38;16.90;62.10
32296;DHT22;18781;51.550;5.418;2023-05-23T08:45:04;16.90;61.70
32296;DHT22;18781;51.550;5.418;2023-05-23T08:47:32;16.90;61.70
32296;DHT22;18781;51.550;5.418;2023-05-23T08:49:59;16.90;61.90
32296;DHT22;18781;51.550;5.418;2023-05-23T08:52:26;16.90;62.10
32296;DHT22;18781;51.550;5.418;2023-05-23T08:54:54;16.90;62.10
32296;DHT22;18781;51.550;5.418;2023-05-23T08:57:20;16.90;62.30
32296;DHT22;18781;51.550;5.418;2023-05-23T08:59:48;16.90;62.60
32296;DHT22;18781;51.550;5.418;2023-05-23T09:02:15;17.00;62.50
32296;DHT22;18781;51.550;5.418;2023-05-23T09:04:41;17.00;62.50
32296;DHT22;18781;51.550;5.418;2023-05-23T09:07:07;17.00;62.30
32296;DHT22;18781;51.550;5.418;2023-05-23T09:09:34;17.00;62.10
32296;DHT22;18781;51.550;5.418;2023-05-23T09:12:00;17.00;62.60
32296;DHT22;18781;51.550;5.418;2023-05-23T09:14:27;17.10;62.40
32296;DHT22;18781;51.550;5.418;2023-05-23T09:17:00;17.10;62.70
32296;DHT22;18781;51.550;5.418;2023-05-23T09:19:27;17.10;62.30
32296;DHT22;18781;51.550;5.418;2023-05-23T09:21:53;17.10;62.20
32296;DHT22;18781;51.550;5.418;2023-05-23T09:24:19;17.20;62.20
32296;DHT22;18781;51.550;5.418;2023-05-23T09:26:46;17.20;62.20
32296;DHT22;18781;51.550;5.418;2023-05-23T09:29:12;17.20;62.40
32296;DHT22;18781;51.550;5.418;2023-05-23T09:31:38;17.20;62.20
32296;DHT22;18781;51.550;5.418;2023-05-23T09:34:04;17.20;61.50
32296;DHT22;18781;51.550;5.418;2023-05-23T09:36:30;17.30;61.40
32296;DHT22;18781;51.550;5.418;2023-05-23T09:39:01;17.30;61.00
32296;DHT22;18781;51.550;5.418;2023-05-23T09:41:31;17.30;60.20
32296;DHT22;18781;51.550;5.418;2023-05-23T09:43:57;17.30;59.60
32296;DHT22;18781;51.550;5.418;2023-05-23T09:46:27;17.30;59.60
32296;DHT22;18781;51.550;5.418;2023-05-23T09:48:54;17.30;59.00
32296;DHT22;18781;51.550;5.418;2023-05-23T09:51:21;17.40;58.50
32296;DHT22;18781;51.550;5.418;2023-05-23T09:53:48;17.40;57.90
32296;DHT22;18781;51.550;5.418;2023-05-23T09:56:18;17.40;58.00
32296;DHT22;18781;51.550;5.418;2023-05-23T09:58:45;17.40;58.00
32296;DHT22;18781;51.550;5.418;2023-05-23T10:01:11;17.50;58.60
32296;DHT22;18781;51.550;5.418;2023-05-23T10:03:51;17.40;57.70
32296;DHT22;18781;51.550;5.418;2023-05-23T10:06:28;17.50;57.40
32296;DHT22;18781;51.550;5.418;2023-05-23T10:09:00;17.50;57.20
32296;DHT22;18781;51.550;5.418;2023-05-23T10:14:02;17.60;57.10
32296;DHT22;18781;51.550;5.418;2023-05-23T10:19:45;17.70;58.20
32296;DHT22;18781;51.550;5.418;2023-05-23T10:22:13;17.90;57.20
32296;DHT22;18781;51.550;5.418;2023-05-23T10:24:40;17.90;55.10
32296;DHT22;18781;51.550;5.418;2023-05-23T10:27:06;18.00;54.90
32296;DHT22;18781;51.550;5.418;2023-05-23T10:29:33;18.00;55.10
32296;DHT22;18781;51.550;5.418;2023-05-23T10:32:00;18.10;54.40
32296;DHT22;18781;51.550;5.418;2023-05-23T10:34:37;18.20;54.50
32296;DHT22;18781;51.550;5.418;2023-05-23T10:37:05;18.30;54.90
32296;DHT22;18781;51.550;5.418;2023-05-23T10:39:58;18.30;54.80
32296;DHT22;18781;51.550;5.418;2023-05-23T10:42:48;18.40;55.00
32296;DHT22;18781;51.550;5.418;2023-05-23T10:45:21;18.50;54.00
32296;DHT22;18781;51.550;5.418;2023-05-23T10:47:48;18.50;52.70
32296;DHT22;18781;51.550;5.418;2023-05-23T10:50:34;18.60;54.00
32296;DHT22;18781;51.550;5.418;2023-05-23T10:53:00;18.70;54.20
32296;DHT22;18781;51.550;5.418;2023-05-23T10:55:31;18.70;53.20
32296;DHT22;18781;51.550;5.418;2023-05-23T10:58:18;18.80;53.10
32296;DHT22;18781;51.550;5.418;2023-05-23T11:00:58;18.90;53.90
32296;DHT22;18781;51.550;5.418;2023-05-23T11:03:36;19.10;53.20
32296;DHT22;18781;51.550;5.418;2023-05-23T11:06:03;19.10;52.80
32296;DHT22;18781;51.550;5.418;2023-05-23T11:08:39;19.20;52.30
32296;DHT22;18781;51.550;5.418;2023-05-23T11:11:07;19.20;51.90
32296;DHT22;18781;51.550;5.418;2023-05-23T11:16:28;19.30;51.00
32296;DHT22;18781;51.550;5.418;2023-05-23T11:21:49;19.30;51.20
32296;DHT22;18781;51.550;5.418;2023-05-23T11:24:15;19.40;51.10
32296;DHT22;18781;51.550;5.418;2023-05-23T11:26:54;19.40;50.70
32296;DHT22;18781;51.550;5.418;2023-05-23T11:29:25;19.50;50.20
32296;DHT22;18781;51.550;5.418;2023-05-23T11:31:51;19.60;50.40
32296;DHT22;18781;51.550;5.418;2023-05-23T11:34:17;19.60;49.90
32296;DHT22;18781;51.550;5.418;2023-05-23T11:36:43;19.70;49.80
32296;DHT22;18781;51.550;5.418;2023-05-23T11:39:09;19.70;50.30
32296;DHT22;18781;51.550;5.418;2023-05-23T11:41:35;19.80;49.70
32296;DHT22;18781;51.550;5.418;2023-05-23T11:44:00;19.80;48.70
32296;DHT22;18781;51.550;5.418;2023-05-23T11:46:26;19.80;49.00
32296;DHT22;18781;51.550;5.418;2023-05-23T11:48:52;19.80;48.00
32296;DHT22;18781;51.550;5.418;2023-05-23T11:51:17;19.80;47.10
32296;DHT22;18781;51.550;5.418;2023-05-23T11:53:46;19.80;47.20
32296;DHT22;18781;51.550;5.418;2023-05-23T11:56:14;19.80;47.50
32296;DHT22;18781;51.550;5.418;2023-05-23T11:58:40;19.80;47.80
32296;DHT22;18781;51.550;5.418;2023-05-23T12:01:08;19.80;47.50
32296;DHT22;18781;51.550;5.418;2023-05-23T12:03:43;19.80;47.90
32296;DHT22;18781;51.550;5.418;2023-05-23T12:06:10;19.80;47.90
32296;DHT22;18781;51.550;5.418;2023-05-23T12:08:35;19.80;47.30
32296;DHT22;18781;51.550;5.418;2023-05-23T12:11:01;19.80;46.40
32296;DHT22;18781;51.550;5.418;2023-05-23T12:13:28;19.90;47.30
32296;DHT22;18781;51.550;5.418;2023-05-23T12:15:55;19.90;48.00
32296;DHT22;18781;51.550;5.418;2023-05-23T12:18:21;19.90;47.50
32296;DHT22;18781;51.550;5.418;2023-05-23T12:20:48;20.00;48.10
32296;DHT22;18781;51.550;5.418;2023-05-23T12:23:21;20.10;48.70
32296;DHT22;18781;51.550;5.418;2023-05-23T12:25:52;20.20;48.30
32296;DHT22;18781;51.550;5.418;2023-05-23T12:28:18;20.20;45.90
32296;DHT22;18781;51.550;5.418;2023-05-23T12:30:44;20.20;46.40
32296;DHT22;18781;51.550;5.418;2023-05-23T12:33:10;20.20;46.90
32296;DHT22;18781;51.550;5.418;2023-05-23T12:35:36;20.20;46.80
32296;DHT22;18781;51.550;5.418;2023-05-23T12:38:05;20.20;47.80
32296;DHT22;18781;51.550;5.418;2023-05-23T12:40:31;20.20;46.60
32296;DHT22;18781;51.550;5.418;2023-05-23T12:42:56;20.30;47.30
32296;DHT22;18781;51.550;5.418;2023-05-23T12:45:34;20.30;46.00
32296;DHT22;18781;51.550;5.418;2023-05-23T12:48:04;20.30;45.20
32296;DHT22;18781;51.550;5.418;2023-05-23T12:50:30;20.30;45.30
32296;DHT22;18781;51.550;5.418;2023-05-23T12:52:56;20.20;44.40
32296;DHT22;18781;51.550;5.418;2023-05-23T12:55:21;20.20;44.90
32296;DHT22;18781;51.550;5.418;2023-05-23T12:57:47;20.10;44.30
32296;DHT22;18781;51.550;5.418;2023-05-23T13:00:13;20.10;45.30
32296;DHT22;18781;51.550;5.418;2023-05-23T13:02:39;20.10;45.80
32296;DHT22;18781;51.550;5.418;2023-05-23T13:05:05;20.10;45.40
32296;DHT22;18781;51.550;5.418;2023-05-23T13:07:31;20.10;45.70
32296;DHT22;18781;51.550;5.418;2023-05-23T13:09:56;20.20;45.30
32296;DHT22;18781;51.550;5.418;2023-05-23T13:12:22;20.10;45.40
32296;DHT22;18781;51.550;5.418;2023-05-23T13:14:48;20.10;45.80
32296;DHT22;18781;51.550;5.418;2023-05-23T13:17:14;20.20;46.00
32296;DHT22;18781;51.550;5.418;2023-05-23T13:19:40;20.20;45.40
32296;DHT22;18781;51.550;5.418;2023-05-23T13:22:06;20.20;44.70
32296;DHT22;18781;51.550;5.418;2023-05-23T13:24:38;20.30;45.00
32296;DHT22;18781;51.550;5.418;2023-05-23T13:27:05;20.30;45.70
32296;DHT22;18781;51.550;5.418;2023-05-23T13:29:31;20.40;44.80
32296;DHT22;18781;51.550;5.418;2023-05-23T13:31:57;20.40;44.20
32296;DHT22;18781;51.550;5.418;2023-05-23T13:34:23;20.40;43.90
32296;DHT22;18781;51.550;5.418;2023-05-23T13:36:49;20.40;45.00
32296;DHT22;18781;51.550;5.418;2023-05-23T13:39:15;20.40;44.10
32296;DHT22;18781;51.550;5.418;2023-05-23T13:41:40;20.40;45.00
32296;DHT22;18781;51.550;5.418;2023-05-23T13:44:06;20.40;44.20
32296;DHT22;18781;51.550;5.418;2023-05-23T13:46:31;20.30;44.80
32296;DHT22;18781;51.550;5.418;2023-05-23T13:48:57;20.30;45.00
32296;DHT22;18781;51.550;5.418;2023-05-23T13:51:22;20.30;45.20
32296;DHT22;18781;51.550;5.418;2023-05-23T13:53:48;20.30;45.60
32296;DHT22;18781;51.550;5.418;2023-05-23T13:56:14;20.30;45.70
32296;DHT22;18781;51.550;5.418;2023-05-23T13:58:40;20.30;45.70
32296;DHT22;18781;51.550;5.418;2023-05-23T14:01:07;20.40;45.20
32296;DHT22;18781;51.550;5.418;2023-05-23T14:03:33;20.40;45.70
32296;DHT22;18781;51.550;5.418;2023-05-23T14:05:59;20.40;44.20
32296;DHT22;18781;51.550;5.418;2023-05-23T14:08:24;20.50;44.10
32296;DHT22;18781;51.550;5.418;2023-05-23T14:10:50;20.40;44.40
32296;DHT22;18781;51.550;5.418;2023-05-23T14:13:15;20.40;43.50
32296;DHT22;18781;51.550;5.418;2023-05-23T14:15:41;20.40;43.80
32296;DHT22;18781;51.550;5.418;2023-05-23T14:18:07;20.40;44.00
32296;DHT22;18781;51.550;5.418;2023-05-23T14:20:32;20.40;43.10
32296;DHT22;18781;51.550;5.418;2023-05-23T14:22:58;20.40;43.10
32296;DHT22;18781;51.550;5.418;2023-05-23T14:25:23;20.50;42.90
32296;DHT22;18781;51.550;5.418;2023-05-23T14:27:49;20.40;43.40
32296;DHT22;18781;51.550;5.418;2023-05-23T14:30:15;20.40;42.80
32296;DHT22;18781;51.550;5.418;2023-05-23T14:32:40;20.40;43.20
32296;DHT22;18781;51.550;5.418;2023-05-23T14:35:08;20.40;43.00
32296;DHT22;18781;51.550;5.418;2023-05-23T14:37:34;20.30;42.50
32296;DHT22;18781;51.550;5.418;2023-05-23T14:40:00;20.30;43.00
32296;DHT22;18781;51.550;5.418;2023-05-23T14:42:25;20.30;43.40
32296;DHT22;18781;51.550;5.418;2023-05-23T14:44:52;20.40;43.30
32296;DHT22;18781;51.550;5.418;2023-05-23T14:47:18;20.40;43.10
32296;DHT22;18781;51.550;5.418;2023-05-23T14:49:44;20.40;43.30
32296;DHT22;18781;51.550;5.418;2023-05-23T14:52:10;20.50;43.80
32296;DHT22;18781;51.550;5.418;2023-05-23T14:54:37;20.40;44.10
32296;DHT22;18781;51.550;5.418;2023-05-23T14:57:05;20.50;44.00
32296;DHT22;18781;51.550;5.418;2023-05-23T14:59:31;20.50;43.60
32296;DHT22;18781;51.550;5.418;2023-05-23T15:01:57;20.50;43.60
32296;DHT22;18781;51.550;5.418;2023-05-23T15:04:23;20.50;44.00
32296;DHT22;18781;51.550;5.418;2023-05-23T15:06:49;20.50;43.30
32296;DHT22;18781;51.550;5.418;2023-05-23T15:09:16;20.40;43.00
32296;DHT22;18781;51.550;5.418;2023-05-23T15:11:43;20.50;42.80
32296;DHT22;18781;51.550;5.418;2023-05-23T15:14:10;20.40;42.90
32296;DHT22;18781;51.550;5.418;2023-05-23T15:16:36;20.40;42.60
32296;DHT22;18781;51.550;5.418;2023-05-23T15:19:02;20.40;42.60
32296;DHT22;18781;51.550;5.418;2023-05-23T15:21:28;20.30;42.80
32296;DHT22;18781;51.550;5.418;2023-05-23T15:23:54;20.30;43.10
32296;DHT22;18781;51.550;5.418;2023-05-23T15:26:20;20.30;43.20
32296;DHT22;18781;51.550;5.418;2023-05-23T15:28:45;20.30;43.40
32296;DHT22;18781;51.550;5.418;2023-05-23T15:31:11;20.30;43.80
32296;DHT22;18781;51.550;5.418;2023-05-23T15:33:37;20.30;42.70
32296;DHT22;18781;51.550;5.418;2023-05-23T15:36:03;20.30;42.10
32296;DHT22;18781;51.550;5.418;2023-05-23T15:38:28;20.30;41.70
32296;DHT22;18781;51.550;5.418;2023-05-23T15:40:54;20.30;41.60
32296;DHT22;18781;51.550;5.418;2023-05-23T15:43:20;20.20;42.20